Fluvius Teign — 8PLU — position and weather

sailwx.info

Track history (hours):
 
Tides and Currents Weather Stations Pressure Air Temp Water Temp Dewpoint Dewpoint Depression Visibility Wind Speed Wind Dir Waves Ship Positions

Fluvius Teign

Last reported at 2017-Nov-20 00:29 UTC. Time now 2017-Nov-22 18:39 UTC.
Position N 51°50' W 008°20'.

Length 81 m; draft 3.6 m.

Type: Cargo ship. MMSI: 314021000.

Date/timePositionNaut miles runAvg speedWind from/ knotsBaromVisibWave heightAir tempDewpointWater temp
2017-Nov-20 00:29N 51°50' W 008°20'0 0.0
2017-Nov-19 23:59N 51°50' W 008°20'0 0.0
2017-Nov-19 23:29N 51°50' W 008°20'0 0.0
2017-Nov-19 22:59N 51°50' W 008°20'0 0.0
2017-Nov-19 22:29N 51°50' W 008°20'0 0.0
2017-Nov-19 21:59N 51°50' W 008°20'0 0.0
2017-Nov-19 21:29N 51°50' W 008°20'0 0.0
2017-Nov-19 20:59N 51°50' W 008°20'0 0.0
2017-Nov-19 20:29N 51°50' W 008°20'0 0.0
2017-Nov-19 19:59N 51°50' W 008°20'0 0.0
2017-Nov-19 19:28N 51°50' W 008°20'0 0.0
2017-Nov-19 18:58N 51°50' W 008°20'0 0.0
2017-Nov-19 18:28N 51°50' W 008°20'0 0.0
2017-Nov-19 17:58N 51°50' W 008°20'0 0.0
2017-Nov-19 17:28N 51°50' W 008°20'0 0.0
2017-Nov-19 16:58N 51°50' W 008°20'0 0.0
2017-Nov-19 16:28N 51°50' W 008°20'0 0.0
2017-Nov-19 15:58N 51°50' W 008°20'0 0.0
2017-Nov-19 15:28N 51°50' W 008°20'0 0.0
2017-Nov-19 14:58N 51°50' W 008°20'0 0.0
2017-Nov-19 14:28N 51°50' W 008°20'0 0.0
2017-Nov-19 13:58N 51°50' W 008°20'0 0.0
2017-Nov-19 13:28N 51°50' W 008°20'0 0.0
2017-Nov-19 12:58N 51°50' W 008°20'0 0.0
2017-Nov-19 12:28N 51°50' W 008°20'0 0.0
2017-Nov-19 11:58N 51°50' W 008°20'0 0.0
2017-Nov-19 11:28N 51°50' W 008°20'0 0.0
2017-Nov-19 10:58N 51°50' W 008°20'0 0.0
2017-Nov-19 10:28N 51°50' W 008°20'0 0.0
2017-Nov-19 09:58N 51°50' W 008°20'0 0.0
2017-Nov-19 09:28N 51°50' W 008°20'0 0.0
2017-Nov-19 08:58N 51°50' W 008°20'0 0.0
2017-Nov-19 08:28N 51°50' W 008°20'0 0.0
2017-Nov-19 07:58N 51°50' W 008°20'0 0.0
2017-Nov-19 07:28N 51°50' W 008°20'0 0.0
2017-Nov-19 06:58N 51°50' W 008°20'0 0.0
2017-Nov-19 06:28N 51°50' W 008°20'0 0.0
2017-Nov-19 05:58N 51°50' W 008°20'0 0.0
2017-Nov-19 05:28N 51°50' W 008°20'0 0.0
2017-Nov-19 04:58N 51°50' W 008°20'0 0.0
2017-Nov-19 04:28N 51°50' W 008°20'0 0.0
2017-Nov-19 03:58N 51°50' W 008°20'0 0.0
2017-Nov-19 03:28N 51°50' W 008°20'0 0.0
2017-Nov-19 02:58N 51°50' W 008°20'0 0.0
2017-Nov-19 02:28N 51°50' W 008°20'0 0.0
2017-Nov-19 01:58N 51°50' W 008°20'0 0.0
2017-Nov-19 01:28N 51°50' W 008°20'0 0.0
2017-Nov-19 00:58N 51°50' W 008°20'0 0.0
2017-Nov-19 00:28N 51°50' W 008°20'0 0.0
2017-Nov-18 23:58N 51°50' W 008°20'0 0.0
2017-Nov-18 23:28N 51°50' W 008°20'0 0.0
2017-Nov-18 22:58N 51°50' W 008°20'0 0.1
2017-Nov-18 22:30N 51°50' W 008°20'3 5.1
2017-Nov-18 22:00N 51°50' W 008°16'4 8.7
2017-Nov-18 21:30N 51°46' W 008°15'510.6
2017-Nov-18 21:00N 51°45' W 008°06'511.0
2017-Nov-18 20:30N 51°48' W 007°58'510.8
2017-Nov-18 20:00N 51°50' W 007°51'510.7
2017-Nov-18 19:30N 51°53' W 007°43'510.4
2017-Nov-18 19:00N 51°55' W 007°36'510.3
2017-Nov-18 18:30N 51°58' W 007°28'510.3
2017-Nov-18 18:00N 52°00' W 007°21'510.2
2017-Nov-18 17:30N 52°03' W 007°14'510.3
2017-Nov-18 17:00N 52°05' W 007°06'510.0
2017-Nov-18 16:30N 52°08' W 006°59'5 9.0
2017-Nov-18 16:00N 52°12' W 006°56'4 7.7
2017-Nov-18 15:30N 52°15' W 006°60'2 3.1
2017-Nov-18 15:00N 52°16' W 007°02'0 0.3
2017-Nov-18 14:30N 52°16' W 007°02'0 0.0
2017-Nov-18 14:00N 52°16' W 007°02'0 0.0
2017-Nov-18 13:30N 52°16' W 007°02'0 0.0
2017-Nov-18 13:00N 52°16' W 007°02'0 0.0
2017-Nov-18 12:30N 52°16' W 007°02'0 0.0
2017-Nov-18 12:00N 52°16' W 007°02'0 0.0
2017-Nov-18 11:30N 52°16' W 007°02'0 0.0
2017-Nov-18 11:00N 52°16' W 007°02'0 0.0
2017-Nov-18 10:30N 52°16' W 007°02'0 0.0
2017-Nov-18 10:00N 52°16' W 007°02'0 0.0
2017-Nov-18 09:24N 52°16' W 007°02'0 0.0
2017-Nov-18 08:51N 52°16' W 007°02'0 0.0
2017-Nov-18 08:30N 52°16' W 007°02'0 0.0
2017-Nov-18 08:00N 52°16' W 007°02'0 0.0
2017-Nov-18 07:27N 52°16' W 007°02'0 0.0
2017-Nov-18 07:00N 52°16' W 007°02'0 0.0
2017-Nov-18 06:30N 52°16' W 007°02'0 0.0
2017-Nov-18 06:00N 52°16' W 007°02'0 0.0
2017-Nov-18 05:30N 52°16' W 007°02'0 0.0
2017-Nov-18 05:00N 52°16' W 007°02'0 0.0
2017-Nov-18 04:21N 52°16' W 007°02'0 0.0
2017-Nov-18 03:57N 52°16' W 007°02'0 0.0
2017-Nov-18 03:27N 52°16' W 007°02'0 0.0
2017-Nov-18 03:00N 52°16' W 007°02'0 0.0
2017-Nov-18 02:30N 52°16' W 007°02'0 0.0
2017-Nov-18 01:59N 52°16' W 007°02'0 0.0
2017-Nov-18 01:29N 52°16' W 007°02'0 0.0
2017-Nov-18 00:59N 52°16' W 007°02'0 0.0
2017-Nov-18 00:29N 52°16' W 007°02'0 0.0
2017-Nov-17 23:59N 52°16' W 007°02'0 0.0
2017-Nov-17 23:29N 52°16' W 007°02'0 0.0
2017-Nov-17 22:59N 52°16' W 007°02'0 0.0
2017-Nov-17 22:29N 52°16' W 007°02'0 0.0
2017-Nov-17 22:00N 52°16' W 007°02'2 3.1
2017-Nov-17 21:30N 52°16' W 006°59'3 5.6
2017-Nov-17 21:00N 52°14' W 006°57'3 6.7
2017-Nov-17 20:30N 52°11' W 006°56'3 7.0
2017-Nov-17 20:00N 52°07' W 006°58'4 8.7
2017-Nov-17 19:30N 52°03' W 006°55'5 9.2
2017-Nov-17 19:00N 51°59' W 006°52'5 9.3
2017-Nov-17 18:30N 51°55' W 006°50'5 9.4
2017-Nov-17 17:59N 51°50' W 006°47'5 9.5
2017-Nov-17 17:29N 51°45' W 006°44'28 9.4
2017-Nov-17 14:30N 51°19' W 006°29'55 9.1
2017-Nov-17 08:28N 50°27' W 005°59'6 8.8
2017-Nov-17 07:49N 50°22' W 005°56'3 8.3
2017-Nov-17 07:30N 50°20' W 005°55'4 8.0
2017-Nov-17 07:00N 50°16' W 005°54'4 7.9
2017-Nov-17 06:30N 50°12' W 005°54'4 7.9
2017-Nov-17 06:00N 50°08' W 005°53'4 7.9
2017-Nov-17 05:30N 50°04' W 005°52'12 7.1
2017-Nov-17 03:47N 49°57' W 005°36'3 8.5
2017-Nov-17 03:28N 49°57' W 005°32'4 8.6
2017-Nov-17 03:00N 49°56' W 005°26'4 8.7
2017-Nov-17 02:30N 49°55' W 005°20'5 8.7
2017-Nov-17 01:56N 49°53' W 005°12'4 8.8
2017-Nov-17 01:29N 49°54' W 005°06'4 9.1
2017-Nov-17 01:00N 49°55' W 004°59'5 9.3
2017-Nov-17 00:29N 49°55' W 004°52'5 9.6
2017-Nov-17 00:00N 49°56' W 004°45'5 9.8
2017-Nov-16 23:30N 49°58' W 004°37'510.1
2017-Nov-16 23:00N 49°59' W 004°30'510.2
2017-Nov-16 22:30N 49°60' W 004°22'510.3
2017-Nov-16 22:00N 50°01' W 004°14'510.2
2017-Nov-16 21:30N 50°02' W 004°06'5 9.9
2017-Nov-16 21:00N 50°03' W 003°59'5 9.8
2017-Nov-16 20:30N 50°04' W 003°51'5 9.4
2017-Nov-16 20:00N 50°05' W 003°44'4 9.0
2017-Nov-16 19:30N 50°06' W 003°37'4 8.3
2017-Nov-16 19:00N 50°06' W 003°31'4 8.1
2017-Nov-16 18:30N 50°07' W 003°25'4 7.9
2017-Nov-16 18:00N 50°08' W 003°19'4 7.8
2017-Nov-16 17:30N 50°08' W 003°13'4 7.8
2017-Nov-16 17:00N 50°09' W 003°07'4 7.8
2017-Nov-16 16:30N 50°10' W 003°01'4 8.2
2017-Nov-16 16:00N 50°11' W 002°55'4 8.7
2017-Nov-16 15:30N 50°12' W 002°48'5 9.3
2017-Nov-16 14:56N 50°13' W 002°40'810.1
2017-Nov-16 14:09N 50°14' W 002°27'210.9
2017-Nov-16 13:57N 50°14' W 002°24'72 9.6
2017-Nov-16 06:28N 50°28' W 000°34'4 6.8
2017-Nov-16 05:52N 50°29' W 000°28'3 7.3
2017-Nov-16 05:26N 50°30' W 000°23'3 8.0
2017-Nov-16 05:00N 50°30' W 000°17'4 8.6
2017-Nov-16 04:30N 50°31' W 000°11'5 9.3
2017-Nov-16 04:00N 50°32' W 000°04'5 9.9
2017-Nov-16 03:30N 50°33' E 000°04'510.2
2017-Nov-16 03:00N 50°35' E 000°12'510.5
2017-Nov-16 02:30N 50°36' E 000°19'510.6
2017-Nov-16 02:00N 50°38' E 000°28'510.3
2017-Nov-16 01:30N 50°40' E 000°35'510.2
2017-Nov-16 01:00N 50°42' E 000°42'5 9.7
2017-Nov-16 00:30N 50°45' E 000°48'5 9.3
2017-Nov-16 00:00N 50°48' E 000°54'4 8.9
2017-Nov-15 23:30N 50°50' E 000°60'4 8.2
2017-Nov-15 23:00N 50°53' E 001°05'4 7.8
2017-Nov-15 22:30N 50°55' E 001°10'4 7.5
2017-Nov-15 21:59N 50°58' E 001°15'4 7.1
2017-Nov-15 21:26N 51°00' E 001°20'3 7.0
2017-Nov-15 21:00N 51°02' E 001°23'4 8.0
2017-Nov-15 20:30N 51°04' E 001°29'4 9.0
2017-Nov-15 20:00N 51°06' E 001°35'4 7.9
2017-Nov-15 19:30N 51°06' E 001°41'5 9.4
2017-Nov-15 19:00N 51°03' E 001°47'510.1
2017-Nov-15 18:30N 51°03' E 001°55'510.6
2017-Nov-15 18:00N 51°03' E 002°04'510.6
2017-Nov-15 17:30N 51°04' E 002°12'510.5
2017-Nov-15 17:00N 51°04' E 002°20'1 1.2
2017-Nov-15 16:29N 51°03' E 002°21'0 0.0
2017-Nov-15 16:00N 51°03' E 002°21'1 1.4
2017-Nov-15 15:27N 51°03' E 002°19'2 4.3
2017-Nov-15 15:00N 51°03' E 002°16'0 0.0
2017-Nov-15 13:00N 51°03' E 002°16'0 0.0
2017-Nov-15 12:26N 51°03' E 002°16'0 0.0
2017-Nov-15 12:00N 51°03' E 002°16'0 0.0
2017-Nov-15 11:26N 51°03' E 002°16'0 0.0
2017-Nov-15 10:50N 51°03' E 002°16'0 0.0
2017-Nov-15 10:26N 51°03' E 002°16'0 0.0
2017-Nov-15 09:59N 51°03' E 002°16'0 0.0
2017-Nov-15 09:05N 51°03' E 002°16'0 0.1
2017-Nov-15 08:59N 51°03' E 002°16'0 0.0
2017-Nov-15 07:59N 51°03' E 002°16'0 0.0
2017-Nov-15 06:56N 51°03' E 002°16'0 0.0
2017-Nov-15 06:17N 51°03' E 002°16'0 0.0
2017-Nov-15 05:56N 51°03' E 002°16'0 0.0
2017-Nov-15 05:26N 51°03' E 002°16'0 0.0
2017-Nov-15 04:59N 51°03' E 002°16'0 0.0
2017-Nov-15 04:29N 51°03' E 002°16'0 0.0
2017-Nov-15 03:59N 51°03' E 002°16'0 0.0
2017-Nov-15 03:14N 51°03' E 002°16'0 0.0
2017-Nov-15 02:56N 51°03' E 002°16'0 0.0
2017-Nov-15 02:23N 51°03' E 002°16'0 0.0
2017-Nov-15 01:50N 51°03' E 002°16'0 0.0
2017-Nov-15 01:29N 51°03' E 002°16'0 0.0
2017-Nov-15 00:53N 51°03' E 002°16'0 0.0
2017-Nov-15 00:11N 51°03' E 002°16'0 0.0
2017-Nov-14 23:59N 51°03' E 002°16'0 0.0
2017-Nov-14 23:29N 51°03' E 002°16'0 0.0
2017-Nov-14 22:50N 51°03' E 002°16'0 0.0
2017-Nov-14 22:29N 51°03' E 002°16'0 0.0
2017-Nov-14 21:53N 51°03' E 002°16'0 0.0
2017-Nov-14 21:29N 51°03' E 002°16'0 0.0
2017-Nov-14 20:59N 51°03' E 002°16'0 0.0
2017-Nov-14 20:11N 51°03' E 002°16'0 0.0
2017-Nov-14 19:56N 51°03' E 002°16'0 0.0
2017-Nov-14 19:23N 51°03' E 002°16'0 0.0
2017-Nov-14 18:50N 51°03' E 002°16'0 0.0
2017-Nov-14 18:11N 51°03' E 002°16'0 0.0
2017-Nov-14 17:59N 51°03' E 002°16'0 0.0
2017-Nov-14 17:29N 51°03' E 002°16'0 0.0
2017-Nov-14 16:59N 51°03' E 002°16'0 0.0
2017-Nov-14 16:02N 51°03' E 002°16'0 0.2
2017-Nov-14 15:59N 51°03' E 002°16'0 0.0
2017-Nov-14 15:14N 51°03' E 002°16'0 0.0
2017-Nov-14 14:50N 51°03' E 002°16'2 4.8
2017-Nov-14 14:28N 51°03' E 002°19'1 3.1
2017-Nov-14 14:01N 51°03' E 002°21'1 2.6
2017-Nov-14 13:26N 51°04' E 002°23'4 9.2
2017-Nov-14 12:59N 51°05' E 002°29'4 7.3
2017-Nov-14 12:29N 51°08' E 002°33'2 3.9
2017-Nov-14 12:00N 51°09' E 002°35'0 0.1
2017-Nov-14 11:30N 51°09' E 002°35'0 0.0
2017-Nov-14 10:45N 51°09' E 002°35'0 0.0
2017-Nov-14 10:30N 51°09' E 002°35'0 0.0
2017-Nov-14 09:42N 51°09' E 002°35'0 0.0
2017-Nov-14 09:18N 51°09' E 002°35'0 0.0
2017-Nov-14 08:54N 51°09' E 002°35'0 0.0
2017-Nov-14 08:30N 51°09' E 002°35'0 0.0
2017-Nov-14 07:57N 51°09' E 002°35'0 0.0
2017-Nov-14 07:24N 51°09' E 002°35'0 0.0
2017-Nov-14 07:00N 51°09' E 002°35'0 0.0
2017-Nov-14 06:30N 51°09' E 002°35'0 0.2
2017-Nov-14 06:00N 51°09' E 002°35'0 0.1
2017-Nov-14 05:30N 51°09' E 002°35'0 0.0
2017-Nov-14 05:00N 51°09' E 002°35'0 0.1
2017-Nov-14 04:30N 51°09' E 002°35'0 0.0
2017-Nov-14 03:59N 51°09' E 002°35'3 6.1
2017-Nov-14 03:30N 51°12' E 002°37'5 9.9
2017-Nov-14 02:58N 51°17' E 002°41'610.0
2017-Nov-14 02:25N 51°22' E 002°44'4 9.9
2017-Nov-14 02:00N 51°22' E 002°51'5 9.8
2017-Nov-14 01:30N 51°22' E 002°59'5 9.9
2017-Nov-14 01:00N 51°22' E 003°07'510.1
2017-Nov-14 00:30N 51°23' E 003°14'510.2
2017-Nov-14 00:01N 51°25' E 003°22'510.1
2017-Nov-13 23:30N 51°25' E 003°30'4 8.6
2017-Nov-13 23:01N 51°26' E 003°37'4 8.3
2017-Nov-13 22:30N 51°24' E 003°43'5 9.3
2017-Nov-13 22:01N 51°21' E 003°48'2 0.1
2017-Nov-13 01:58N 51°19' E 003°50'0 0.0
2017-Nov-13 01:28N 51°19' E 003°50'0 0.0
2017-Nov-13 00:58N 51°19' E 003°50'0 0.0
2017-Nov-13 00:28N 51°19' E 003°50'0 0.0
2017-Nov-12 23:58N 51°19' E 003°50'0 0.0
2017-Nov-12 23:28N 51°19' E 003°50'0 0.0
2017-Nov-12 22:58N 51°19' E 003°50'0 0.0
2017-Nov-12 22:28N 51°19' E 003°50'0 0.0
2017-Nov-12 21:58N 51°19' E 003°50'0 0.0
2017-Nov-12 21:28N 51°19' E 003°50'0 0.0
2017-Nov-12 20:58N 51°19' E 003°50'0 0.0
2017-Nov-12 20:28N 51°19' E 003°50'0 0.0
2017-Nov-12 19:58N 51°19' E 003°50'0 0.0
2017-Nov-12 19:28N 51°19' E 003°50'0 0.0
2017-Nov-12 18:58N 51°19' E 003°50'0 0.0
2017-Nov-12 18:28N 51°19' E 003°50'0 0.0
2017-Nov-12 17:58N 51°19' E 003°50'0 0.0
2017-Nov-12 17:28N 51°19' E 003°50'0 0.0
2017-Nov-12 16:58N 51°19' E 003°50'0 0.0
2017-Nov-12 16:28N 51°19' E 003°50'0 0.0
2017-Nov-12 16:01N 51°19' E 003°50'0 0.0
2017-Nov-12 15:31N 51°19' E 003°50'0 0.0
2017-Nov-12 14:57N 51°19' E 003°50'0 0.0
2017-Nov-12 14:30N 51°19' E 003°50'0 0.0
2017-Nov-12 14:00N 51°19' E 003°50'0 0.0
2017-Nov-12 13:30N 51°19' E 003°50'0 0.0
2017-Nov-12 12:57N 51°19' E 003°50'0 0.0
2017-Nov-12 12:30N 51°19' E 003°50'0 0.0
2017-Nov-12 12:00N 51°19' E 003°50'0 0.0
2017-Nov-12 11:30N 51°19' E 003°50'0 0.0
2017-Nov-12 10:57N 51°19' E 003°50'0 0.0
2017-Nov-12 10:30N 51°19' E 003°50'0 0.0
2017-Nov-12 10:00N 51°19' E 003°50'0 0.0
2017-Nov-12 09:30N 51°19' E 003°50'0 0.0
2017-Nov-12 09:00N 51°19' E 003°50'0 0.0
2017-Nov-12 08:30N 51°19' E 003°50'0 0.0
2017-Nov-12 08:00N 51°19' E 003°50'0 0.0
2017-Nov-12 07:27N 51°19' E 003°50'0 0.0
2017-Nov-12 07:00N 51°19' E 003°50'0 0.0
2017-Nov-12 06:30N 51°19' E 003°50'0 0.0
2017-Nov-12 06:00N 51°19' E 003°50'0 0.0
2017-Nov-12 05:30N 51°19' E 003°50'0 0.0
2017-Nov-12 05:00N 51°19' E 003°50'1 1.7
2017-Nov-12 04:30N 51°20' E 003°49'1 1.3
2017-Nov-12 04:00N 51°20' E 003°49'4 7.9
2017-Nov-12 03:30N 51°23' E 003°43'5 9.3
2017-Nov-12 03:00N 51°25' E 003°37'4 7.0
2017-Nov-12 02:30N 51°27' E 003°32'3 6.5
2017-Nov-12 02:00N 51°29' E 003°29'4 7.2
2017-Nov-12 01:30N 51°32' E 003°25'4 7.9
2017-Nov-12 00:59N 51°36' E 003°23'6 8.2
2017-Nov-12 00:19N 51°41' E 003°18'4 8.1
2017-Nov-11 23:51N 51°44' E 003°15'2 5.6
2017-Nov-11 23:29N 51°45' E 003°12'4 8.5
2017-Nov-11 23:00N 51°48' E 003°08'60 8.6
2017-Nov-11 15:58N 52°35' E 002°06'5 9.9
2017-Nov-11 15:30N 52°38' E 002°01'510.3
2017-Nov-11 15:00N 52°42' E 001°55'510.7
2017-Nov-11 14:29N 52°46' E 001°48'510.9
2017-Nov-11 14:00N 52°49' E 001°41'610.8
2017-Nov-11 13:29N 52°54' E 001°38'510.9
2017-Nov-11 12:59N 52°59' E 001°33'510.7
2017-Nov-11 12:30N 53°03' E 001°28'510.3
2017-Nov-11 12:00N 53°07' E 001°23'510.0
2017-Nov-11 11:30N 53°12' E 001°19'510.0
2017-Nov-11 11:00N 53°16' E 001°14'49 9.2
2017-Nov-11 05:42N 53°56' E 000°27'2 8.0
2017-Nov-11 05:24N 53°58' E 000°25'3 8.0
2017-Nov-11 05:00N 54°00' E 000°21'4 7.8
2017-Nov-11 04:30N 54°03' E 000°17'4 7.7
2017-Nov-11 04:00N 54°06' E 000°13'4 7.5
2017-Nov-11 03:30N 54°09' E 000°09'4 7.4
2017-Nov-11 03:00N 54°12' E 000°05'4 7.4
2017-Nov-11 02:30N 54°15' E 000°01'4 7.6
2017-Nov-11 02:00N 54°18' W 000°04'4 7.7
2017-Nov-11 01:30N 54°21' W 000°08'4 7.9
2017-Nov-11 01:00N 54°24' W 000°12'4 7.9
2017-Nov-11 00:30N 54°27' W 000°17'4 8.4
2017-Nov-11 00:00N 54°30' W 000°21'4 8.4
2017-Nov-10 23:30N 54°33' W 000°26'4 8.7
2017-Nov-10 23:00N 54°36' W 000°31'17 9.1
2017-Nov-10 21:09N 54°48' W 000°53'1 9.4
2017-Nov-10 21:00N 54°49' W 000°54'5 9.3
2017-Nov-10 20:30N 54°52' W 001°00'5 9.4
2017-Nov-10 20:00N 54°55' W 001°06'5 9.5
2017-Nov-10 19:30N 54°58' W 001°13'5 9.7
2017-Nov-10 19:00N 55°01' W 001°19'5 9.5
2017-Nov-10 18:30N 55°05' W 001°25'4 8.1
2017-Nov-10 18:00N 55°07' W 001°30'1 2.1
2017-Nov-10 17:29N 55°08' W 001°31'0 0.0
2017-Nov-10 16:59N 55°08' W 001°31'0 0.0
2017-Nov-10 16:29N 55°08' W 001°31'0 0.0
2017-Nov-10 15:59N 55°08' W 001°31'0 0.0
2017-Nov-10 15:29N 55°08' W 001°31'0 0.0
2017-Nov-10 14:59N 55°08' W 001°31'0 0.0
2017-Nov-10 14:29N 55°08' W 001°31'0 0.0
2017-Nov-10 13:59N 55°08' W 001°31'0 0.0
2017-Nov-10 13:29N 55°08' W 001°31'0 0.0
2017-Nov-10 12:59N 55°08' W 001°31'0 0.0
2017-Nov-10 12:29N 55°08' W 001°31'0 0.0
2017-Nov-10 11:59N 55°08' W 001°31'0 0.0
2017-Nov-10 11:29N 55°08' W 001°31'0 0.0
2017-Nov-10 10:59N 55°08' W 001°31'0 0.0
2017-Nov-10 10:29N 55°08' W 001°31'0 0.0
2017-Nov-10 09:59N 55°08' W 001°31'0 0.0
2017-Nov-10 09:29N 55°08' W 001°31'0 0.0
2017-Nov-10 08:59N 55°08' W 001°31'0 0.0
2017-Nov-10 08:29N 55°08' W 001°31'0 0.0
2017-Nov-10 07:59N 55°08' W 001°31'0 0.0
2017-Nov-10 07:29N 55°08' W 001°31'0 0.0
2017-Nov-10 06:59N 55°08' W 001°31'0 0.0
2017-Nov-10 06:30N 55°08' W 001°31'2 4.5
2017-Nov-10 06:00N 55°06' W 001°29'2 3.4
2017-Nov-10 05:31N 55°07' W 001°26'3 5.6
2017-Nov-10 05:01N 55°09' W 001°26'3 5.4
2017-Nov-10 04:30N 55°12' W 001°27'3 5.2
2017-Nov-10 04:01N 55°15' W 001°27'2 4.9
2017-Nov-10 03:30N 55°17' W 001°27'3 5.5
2017-Nov-10 03:01N 55°20' W 001°28'5 9.2
2017-Nov-10 02:31N 55°24' W 001°28'5 9.0
2017-Nov-10 02:00N 55°29' W 001°29'4 8.9
2017-Nov-10 01:30N 55°33' W 001°29'4 8.6
2017-Nov-10 01:00N 55°38' W 001°30'  
Track history (hours):
 
Tides and Currents Weather Stations Pressure Air Temp Water Temp Dewpoint Dewpoint Depression Visibility Wind Speed Wind Dir Waves Ship Positions

Fluvius Teign

Last reported at 2017-Nov-20 00:29 UTC. Time now 2017-Nov-22 18:39 UTC.
Position N 51°50' W 008°20'.

Length 81 m; draft 3.6 m.

Type: Cargo ship. MMSI: 314021000.

Date/timePositionNaut miles runAvg speedWind from/ knotsBaromVisibWave heightAir tempDewpointWater temp
2017-Nov-20 00:29N 51°50' W 008°20'0 0.0
2017-Nov-19 23:59N 51°50' W 008°20'0 0.0
2017-Nov-19 23:29N 51°50' W 008°20'0 0.0
2017-Nov-19 22:59N 51°50' W 008°20'0 0.0
2017-Nov-19 22:29N 51°50' W 008°20'0 0.0
2017-Nov-19 21:59N 51°50' W 008°20'0 0.0
2017-Nov-19 21:29N 51°50' W 008°20'0 0.0
2017-Nov-19 20:59N 51°50' W 008°20'0 0.0
2017-Nov-19 20:29N 51°50' W 008°20'0 0.0
2017-Nov-19 19:59N 51°50' W 008°20'0 0.0
2017-Nov-19 19:28N 51°50' W 008°20'0 0.0
2017-Nov-19 18:58N 51°50' W 008°20'0 0.0
2017-Nov-19 18:28N 51°50' W 008°20'0 0.0
2017-Nov-19 17:58N 51°50' W 008°20'0 0.0
2017-Nov-19 17:28N 51°50' W 008°20'0 0.0
2017-Nov-19 16:58N 51°50' W 008°20'0 0.0
2017-Nov-19 16:28N 51°50' W 008°20'0 0.0
2017-Nov-19 15:58N 51°50' W 008°20'0 0.0
2017-Nov-19 15:28N 51°50' W 008°20'0 0.0
2017-Nov-19 14:58N 51°50' W 008°20'0 0.0
2017-Nov-19 14:28N 51°50' W 008°20'0 0.0
2017-Nov-19 13:58N 51°50' W 008°20'0 0.0
2017-Nov-19 13:28N 51°50' W 008°20'0 0.0
2017-Nov-19 12:58N 51°50' W 008°20'0 0.0
2017-Nov-19 12:28N 51°50' W 008°20'0 0.0
2017-Nov-19 11:58N 51°50' W 008°20'0 0.0
2017-Nov-19 11:28N 51°50' W 008°20'0 0.0
2017-Nov-19 10:58N 51°50' W 008°20'0 0.0
2017-Nov-19 10:28N 51°50' W 008°20'0 0.0
2017-Nov-19 09:58N 51°50' W 008°20'0 0.0
2017-Nov-19 09:28N 51°50' W 008°20'0 0.0
2017-Nov-19 08:58N 51°50' W 008°20'0 0.0
2017-Nov-19 08:28N 51°50' W 008°20'0 0.0
2017-Nov-19 07:58N 51°50' W 008°20'0 0.0
2017-Nov-19 07:28N 51°50' W 008°20'0 0.0
2017-Nov-19 06:58N 51°50' W 008°20'0 0.0
2017-Nov-19 06:28N 51°50' W 008°20'0 0.0
2017-Nov-19 05:58N 51°50' W 008°20'0 0.0
2017-Nov-19 05:28N 51°50' W 008°20'0 0.0
2017-Nov-19 04:58N 51°50' W 008°20'0 0.0
2017-Nov-19 04:28N 51°50' W 008°20'0 0.0
2017-Nov-19 03:58N 51°50' W 008°20'0 0.0
2017-Nov-19 03:28N 51°50' W 008°20'0 0.0
2017-Nov-19 02:58N 51°50' W 008°20'0 0.0
2017-Nov-19 02:28N 51°50' W 008°20'0 0.0
2017-Nov-19 01:58N 51°50' W 008°20'0 0.0
2017-Nov-19 01:28N 51°50' W 008°20'0 0.0
2017-Nov-19 00:58N 51°50' W 008°20'0 0.0
2017-Nov-19 00:28N 51°50' W 008°20'0 0.0
2017-Nov-18 23:58N 51°50' W 008°20'0 0.0
2017-Nov-18 23:28N 51°50' W 008°20'0 0.0
2017-Nov-18 22:58N 51°50' W 008°20'0 0.1
2017-Nov-18 22:30N 51°50' W 008°20'3 5.1
2017-Nov-18 22:00N 51°50' W 008°16'4 8.7
2017-Nov-18 21:30N 51°46' W 008°15'510.6
2017-Nov-18 21:00N 51°45' W 008°06'511.0
2017-Nov-18 20:30N 51°48' W 007°58'510.8
2017-Nov-18 20:00N 51°50' W 007°51'510.7
2017-Nov-18 19:30N 51°53' W 007°43'510.4
2017-Nov-18 19:00N 51°55' W 007°36'510.3
2017-Nov-18 18:30N 51°58' W 007°28'510.3
2017-Nov-18 18:00N 52°00' W 007°21'510.2
2017-Nov-18 17:30N 52°03' W 007°14'510.3
2017-Nov-18 17:00N 52°05' W 007°06'510.0
2017-Nov-18 16:30N 52°08' W 006°59'5 9.0
2017-Nov-18 16:00N 52°12' W 006°56'4 7.7
2017-Nov-18 15:30N 52°15' W 006°60'2 3.1
2017-Nov-18 15:00N 52°16' W 007°02'0 0.3
2017-Nov-18 14:30N 52°16' W 007°02'0 0.0
2017-Nov-18 14:00N 52°16' W 007°02'0 0.0
2017-Nov-18 13:30N 52°16' W 007°02'0 0.0
2017-Nov-18 13:00N 52°16' W 007°02'0 0.0
2017-Nov-18 12:30N 52°16' W 007°02'0 0.0
2017-Nov-18 12:00N 52°16' W 007°02'0 0.0
2017-Nov-18 11:30N 52°16' W 007°02'0 0.0
2017-Nov-18 11:00N 52°16' W 007°02'0 0.0
2017-Nov-18 10:30N 52°16' W 007°02'0 0.0
2017-Nov-18 10:00N 52°16' W 007°02'0 0.0
2017-Nov-18 09:24N 52°16' W 007°02'0 0.0
2017-Nov-18 08:51N 52°16' W 007°02'0 0.0
2017-Nov-18 08:30N 52°16' W 007°02'0 0.0
2017-Nov-18 08:00N 52°16' W 007°02'0 0.0
2017-Nov-18 07:27N 52°16' W 007°02'0 0.0
2017-Nov-18 07:00N 52°16' W 007°02'0 0.0
2017-Nov-18 06:30N 52°16' W 007°02'0 0.0
2017-Nov-18 06:00N 52°16' W 007°02'0 0.0
2017-Nov-18 05:30N 52°16' W 007°02'0 0.0
2017-Nov-18 05:00N 52°16' W 007°02'0 0.0
2017-Nov-18 04:21N 52°16' W 007°02'0 0.0
2017-Nov-18 03:57N 52°16' W 007°02'0 0.0
2017-Nov-18 03:27N 52°16' W 007°02'0 0.0
2017-Nov-18 03:00N 52°16' W 007°02'0 0.0
2017-Nov-18 02:30N 52°16' W 007°02'0 0.0
2017-Nov-18 01:59N 52°16' W 007°02'0 0.0
2017-Nov-18 01:29N 52°16' W 007°02'0 0.0
2017-Nov-18 00:59N 52°16' W 007°02'0 0.0
2017-Nov-18 00:29N 52°16' W 007°02'0 0.0
2017-Nov-17 23:59N 52°16' W 007°02'0 0.0
2017-Nov-17 23:29N 52°16' W 007°02'0 0.0
2017-Nov-17 22:59N 52°16' W 007°02'0 0.0
2017-Nov-17 22:29N 52°16' W 007°02'0 0.0
2017-Nov-17 22:00N 52°16' W 007°02'2 3.1
2017-Nov-17 21:30N 52°16' W 006°59'3 5.6
2017-Nov-17 21:00N 52°14' W 006°57'3 6.7
2017-Nov-17 20:30N 52°11' W 006°56'3 7.0
2017-Nov-17 20:00N 52°07' W 006°58'4 8.7
2017-Nov-17 19:30N 52°03' W 006°55'5 9.2
2017-Nov-17 19:00N 51°59' W 006°52'5 9.3
2017-Nov-17 18:30N 51°55' W 006°50'5 9.4
2017-Nov-17 17:59N 51°50' W 006°47'5 9.5
2017-Nov-17 17:29N 51°45' W 006°44'28 9.4
2017-Nov-17 14:30N 51°19' W 006°29'55 9.1
2017-Nov-17 08:28N 50°27' W 005°59'6 8.8
2017-Nov-17 07:49N 50°22' W 005°56'3 8.3
2017-Nov-17 07:30N 50°20' W 005°55'4 8.0
2017-Nov-17 07:00N 50°16' W 005°54'4 7.9
2017-Nov-17 06:30N 50°12' W 005°54'4 7.9
2017-Nov-17 06:00N 50°08' W 005°53'4 7.9
2017-Nov-17 05:30N 50°04' W 005°52'12 7.1
2017-Nov-17 03:47N 49°57' W 005°36'3 8.5
2017-Nov-17 03:28N 49°57' W 005°32'4 8.6
2017-Nov-17 03:00N 49°56' W 005°26'4 8.7
2017-Nov-17 02:30N 49°55' W 005°20'5 8.7
2017-Nov-17 01:56N 49°53' W 005°12'4 8.8
2017-Nov-17 01:29N 49°54' W 005°06'4 9.1
2017-Nov-17 01:00N 49°55' W 004°59'5 9.3
2017-Nov-17 00:29N 49°55' W 004°52'5 9.6
2017-Nov-17 00:00N 49°56' W 004°45'5 9.8
2017-Nov-16 23:30N 49°58' W 004°37'510.1
2017-Nov-16 23:00N 49°59' W 004°30'510.2
2017-Nov-16 22:30N 49°60' W 004°22'510.3
2017-Nov-16 22:00N 50°01' W 004°14'510.2
2017-Nov-16 21:30N 50°02' W 004°06'5 9.9
2017-Nov-16 21:00N 50°03' W 003°59'5 9.8
2017-Nov-16 20:30N 50°04' W 003°51'5 9.4
2017-Nov-16 20:00N 50°05' W 003°44'4 9.0
2017-Nov-16 19:30N 50°06' W 003°37'4 8.3
2017-Nov-16 19:00N 50°06' W 003°31'4 8.1
2017-Nov-16 18:30N 50°07' W 003°25'4 7.9
2017-Nov-16 18:00N 50°08' W 003°19'4 7.8
2017-Nov-16 17:30N 50°08' W 003°13'4 7.8
2017-Nov-16 17:00N 50°09' W 003°07'4 7.8
2017-Nov-16 16:30N 50°10' W 003°01'4 8.2
2017-Nov-16 16:00N 50°11' W 002°55'4 8.7
2017-Nov-16 15:30N 50°12' W 002°48'5 9.3
2017-Nov-16 14:56N 50°13' W 002°40'810.1
2017-Nov-16 14:09N 50°14' W 002°27'210.9
2017-Nov-16 13:57N 50°14' W 002°24'72 9.6
2017-Nov-16 06:28N 50°28' W 000°34'4 6.8
2017-Nov-16 05:52N 50°29' W 000°28'3 7.3
2017-Nov-16 05:26N 50°30' W 000°23'3 8.0
2017-Nov-16 05:00N 50°30' W 000°17'4 8.6
2017-Nov-16 04:30N 50°31' W 000°11'5 9.3
2017-Nov-16 04:00N 50°32' W 000°04'5 9.9
2017-Nov-16 03:30N 50°33' E 000°04'510.2
2017-Nov-16 03:00N 50°35' E 000°12'510.5
2017-Nov-16 02:30N 50°36' E 000°19'510.6
2017-Nov-16 02:00N 50°38' E 000°28'510.3
2017-Nov-16 01:30N 50°40' E 000°35'510.2
2017-Nov-16 01:00N 50°42' E 000°42'5 9.7
2017-Nov-16 00:30N 50°45' E 000°48'5 9.3
2017-Nov-16 00:00N 50°48' E 000°54'4 8.9
2017-Nov-15 23:30N 50°50' E 000°60'4 8.2
2017-Nov-15 23:00N 50°53' E 001°05'4 7.8
2017-Nov-15 22:30N 50°55' E 001°10'4 7.5
2017-Nov-15 21:59N 50°58' E 001°15'4 7.1
2017-Nov-15 21:26N 51°00' E 001°20'3 7.0
2017-Nov-15 21:00N 51°02' E 001°23'4 8.0
2017-Nov-15 20:30N 51°04' E 001°29'4 9.0
2017-Nov-15 20:00N 51°06' E 001°35'4 7.9
2017-Nov-15 19:30N 51°06' E 001°41'5 9.4
2017-Nov-15 19:00N 51°03' E 001°47'510.1
2017-Nov-15 18:30N 51°03' E 001°55'510.6
2017-Nov-15 18:00N 51°03' E 002°04'510.6
2017-Nov-15 17:30N 51°04' E 002°12'510.5
2017-Nov-15 17:00N 51°04' E 002°20'1 1.2
2017-Nov-15 16:29N 51°03' E 002°21'0 0.0
2017-Nov-15 16:00N 51°03' E 002°21'1 1.4
2017-Nov-15 15:27N 51°03' E 002°19'2 4.3
2017-Nov-15 15:00N 51°03' E 002°16'0 0.0
2017-Nov-15 13:00N 51°03' E 002°16'0 0.0
2017-Nov-15 12:26N 51°03' E 002°16'0 0.0
2017-Nov-15 12:00N 51°03' E 002°16'0 0.0
2017-Nov-15 11:26N 51°03' E 002°16'0 0.0
2017-Nov-15 10:50N 51°03' E 002°16'0 0.0
2017-Nov-15 10:26N 51°03' E 002°16'0 0.0
2017-Nov-15 09:59N 51°03' E 002°16'0 0.0
2017-Nov-15 09:05N 51°03' E 002°16'0 0.1
2017-Nov-15 08:59N 51°03' E 002°16'0 0.0
2017-Nov-15 07:59N 51°03' E 002°16'0 0.0
2017-Nov-15 06:56N 51°03' E 002°16'0 0.0
2017-Nov-15 06:17N 51°03' E 002°16'0 0.0
2017-Nov-15 05:56N 51°03' E 002°16'0 0.0
2017-Nov-15 05:26N 51°03' E 002°16'0 0.0
2017-Nov-15 04:59N 51°03' E 002°16'0 0.0
2017-Nov-15 04:29N 51°03' E 002°16'0 0.0
2017-Nov-15 03:59N 51°03' E 002°16'0 0.0
2017-Nov-15 03:14N 51°03' E 002°16'0 0.0
2017-Nov-15 02:56N 51°03' E 002°16'0 0.0
2017-Nov-15 02:23N 51°03' E 002°16'0 0.0
2017-Nov-15 01:50N 51°03' E 002°16'0 0.0
2017-Nov-15 01:29N 51°03' E 002°16'0 0.0
2017-Nov-15 00:53N 51°03' E 002°16'0 0.0
2017-Nov-15 00:11N 51°03' E 002°16'0 0.0
2017-Nov-14 23:59N 51°03' E 002°16'0 0.0
2017-Nov-14 23:29N 51°03' E 002°16'0 0.0
2017-Nov-14 22:50N 51°03' E 002°16'0 0.0
2017-Nov-14 22:29N 51°03' E 002°16'0 0.0
2017-Nov-14 21:53N 51°03' E 002°16'0 0.0
2017-Nov-14 21:29N 51°03' E 002°16'0 0.0
2017-Nov-14 20:59N 51°03' E 002°16'0 0.0
2017-Nov-14 20:11N 51°03' E 002°16'0 0.0
2017-Nov-14 19:56N 51°03' E 002°16'0 0.0
2017-Nov-14 19:23N 51°03' E 002°16'0 0.0
2017-Nov-14 18:50N 51°03' E 002°16'0 0.0
2017-Nov-14 18:11N 51°03' E 002°16'0 0.0
2017-Nov-14 17:59N 51°03' E 002°16'0 0.0
2017-Nov-14 17:29N 51°03' E 002°16'0 0.0
2017-Nov-14 16:59N 51°03' E 002°16'0 0.0
2017-Nov-14 16:02N 51°03' E 002°16'0 0.2
2017-Nov-14 15:59N 51°03' E 002°16'0 0.0
2017-Nov-14 15:14N 51°03' E 002°16'0 0.0
2017-Nov-14 14:50N 51°03' E 002°16'2 4.8
2017-Nov-14 14:28N 51°03' E 002°19'1 3.1
2017-Nov-14 14:01N 51°03' E 002°21'1 2.6
2017-Nov-14 13:26N 51°04' E 002°23'4 9.2
2017-Nov-14 12:59N 51°05' E 002°29'4 7.3
2017-Nov-14 12:29N 51°08' E 002°33'2 3.9
2017-Nov-14 12:00N 51°09' E 002°35'0 0.1
2017-Nov-14 11:30N 51°09' E 002°35'0 0.0
2017-Nov-14 10:45N 51°09' E 002°35'0 0.0
2017-Nov-14 10:30N 51°09' E 002°35'0 0.0
2017-Nov-14 09:42N 51°09' E 002°35'0 0.0
2017-Nov-14 09:18N 51°09' E 002°35'0 0.0
2017-Nov-14 08:54N 51°09' E 002°35'0 0.0
2017-Nov-14 08:30N 51°09' E 002°35'0 0.0
2017-Nov-14 07:57N 51°09' E 002°35'0 0.0
2017-Nov-14 07:24N 51°09' E 002°35'0 0.0
2017-Nov-14 07:00N 51°09' E 002°35'0 0.0
2017-Nov-14 06:30N 51°09' E 002°35'0 0.2
2017-Nov-14 06:00N 51°09' E 002°35'0 0.1
2017-Nov-14 05:30N 51°09' E 002°35'0 0.0
2017-Nov-14 05:00N 51°09' E 002°35'0 0.1
2017-Nov-14 04:30N 51°09' E 002°35'0 0.0
2017-Nov-14 03:59N 51°09' E 002°35'3 6.1
2017-Nov-14 03:30N 51°12' E 002°37'5 9.9
2017-Nov-14 02:58N 51°17' E 002°41'610.0
2017-Nov-14 02:25N 51°22' E 002°44'4 9.9
2017-Nov-14 02:00N 51°22' E 002°51'5 9.8
2017-Nov-14 01:30N 51°22' E 002°59'5 9.9
2017-Nov-14 01:00N 51°22' E 003°07'510.1
2017-Nov-14 00:30N 51°23' E 003°14'510.2
2017-Nov-14 00:01N 51°25' E 003°22'510.1
2017-Nov-13 23:30N 51°25' E 003°30'4 8.6
2017-Nov-13 23:01N 51°26' E 003°37'4 8.3
2017-Nov-13 22:30N 51°24' E 003°43'5 9.3
2017-Nov-13 22:01N 51°21' E 003°48'2 0.1
2017-Nov-13 01:58N 51°19' E 003°50'0 0.0
2017-Nov-13 01:28N 51°19' E 003°50'0 0.0
2017-Nov-13 00:58N 51°19' E 003°50'0 0.0
2017-Nov-13 00:28N 51°19' E 003°50'0 0.0
2017-Nov-12 23:58N 51°19' E 003°50'0 0.0
2017-Nov-12 23:28N 51°19' E 003°50'0 0.0
2017-Nov-12 22:58N 51°19' E 003°50'0 0.0
2017-Nov-12 22:28N 51°19' E 003°50'0 0.0
2017-Nov-12 21:58N 51°19' E 003°50'0 0.0
2017-Nov-12 21:28N 51°19' E 003°50'0 0.0
2017-Nov-12 20:58N 51°19' E 003°50'0 0.0
2017-Nov-12 20:28N 51°19' E 003°50'0 0.0
2017-Nov-12 19:58N 51°19' E 003°50'0 0.0
2017-Nov-12 19:28N 51°19' E 003°50'0 0.0
2017-Nov-12 18:58N 51°19' E 003°50'0 0.0
2017-Nov-12 18:28N 51°19' E 003°50'0 0.0
2017-Nov-12 17:58N 51°19' E 003°50'0 0.0
2017-Nov-12 17:28N 51°19' E 003°50'0 0.0
2017-Nov-12 16:58N 51°19' E 003°50'0 0.0
2017-Nov-12 16:28N 51°19' E 003°50'0 0.0
2017-Nov-12 16:01N 51°19' E 003°50'0 0.0
2017-Nov-12 15:31N 51°19' E 003°50'0 0.0
2017-Nov-12 14:57N 51°19' E 003°50'0 0.0
2017-Nov-12 14:30N 51°19' E 003°50'0 0.0
2017-Nov-12 14:00N 51°19' E 003°50'0 0.0
2017-Nov-12 13:30N 51°19' E 003°50'0 0.0
2017-Nov-12 12:57N 51°19' E 003°50'0 0.0
2017-Nov-12 12:30N 51°19' E 003°50'0 0.0
2017-Nov-12 12:00N 51°19' E 003°50'0 0.0
2017-Nov-12 11:30N 51°19' E 003°50'0 0.0
2017-Nov-12 10:57N 51°19' E 003°50'0 0.0
2017-Nov-12 10:30N 51°19' E 003°50'0 0.0
2017-Nov-12 10:00N 51°19' E 003°50'0 0.0
2017-Nov-12 09:30N 51°19' E 003°50'0 0.0
2017-Nov-12 09:00N 51°19' E 003°50'0 0.0
2017-Nov-12 08:30N 51°19' E 003°50'0 0.0
2017-Nov-12 08:00N 51°19' E 003°50'0 0.0
2017-Nov-12 07:27N 51°19' E 003°50'0 0.0
2017-Nov-12 07:00N 51°19' E 003°50'0 0.0
2017-Nov-12 06:30N 51°19' E 003°50'0 0.0
2017-Nov-12 06:00N 51°19' E 003°50'0 0.0
2017-Nov-12 05:30N 51°19' E 003°50'0 0.0
2017-Nov-12 05:00N 51°19' E 003°50'1 1.7
2017-Nov-12 04:30N 51°20' E 003°49'1 1.3
2017-Nov-12 04:00N 51°20' E 003°49'4 7.9
2017-Nov-12 03:30N 51°23' E 003°43'5 9.3
2017-Nov-12 03:00N 51°25' E 003°37'4 7.0
2017-Nov-12 02:30N 51°27' E 003°32'3 6.5
2017-Nov-12 02:00N 51°29' E 003°29'4 7.2
2017-Nov-12 01:30N 51°32' E 003°25'4 7.9
2017-Nov-12 00:59N 51°36' E 003°23'6 8.2
2017-Nov-12 00:19N 51°41' E 003°18'4 8.1
2017-Nov-11 23:51N 51°44' E 003°15'2 5.6
2017-Nov-11 23:29N 51°45' E 003°12'4 8.5
2017-Nov-11 23:00N 51°48' E 003°08'60 8.6
2017-Nov-11 15:58N 52°35' E 002°06'5 9.9
2017-Nov-11 15:30N 52°38' E 002°01'510.3
2017-Nov-11 15:00N 52°42' E 001°55'510.7
2017-Nov-11 14:29N 52°46' E 001°48'510.9
2017-Nov-11 14:00N 52°49' E 001°41'610.8
2017-Nov-11 13:29N 52°54' E 001°38'510.9
2017-Nov-11 12:59N 52°59' E 001°33'510.7
2017-Nov-11 12:30N 53°03' E 001°28'510.3
2017-Nov-11 12:00N 53°07' E 001°23'510.0
2017-Nov-11 11:30N 53°12' E 001°19'510.0
2017-Nov-11 11:00N 53°16' E 001°14'49 9.2
2017-Nov-11 05:42N 53°56' E 000°27'2 8.0
2017-Nov-11 05:24N 53°58' E 000°25'3 8.0
2017-Nov-11 05:00N 54°00' E 000°21'4 7.8
2017-Nov-11 04:30N 54°03' E 000°17'4 7.7
2017-Nov-11 04:00N 54°06' E 000°13'4 7.5
2017-Nov-11 03:30N 54°09' E 000°09'4 7.4
2017-Nov-11 03:00N 54°12' E 000°05'4 7.4
2017-Nov-11 02:30N 54°15' E 000°01'4 7.6
2017-Nov-11 02:00N 54°18' W 000°04'4 7.7
2017-Nov-11 01:30N 54°21' W 000°08'4 7.9
2017-Nov-11 01:00N 54°24' W 000°12'4 7.9
2017-Nov-11 00:30N 54°27' W 000°17'4 8.4
2017-Nov-11 00:00N 54°30' W 000°21'4 8.4
2017-Nov-10 23:30N 54°33' W 000°26'4 8.7
2017-Nov-10 23:00N 54°36' W 000°31'17 9.1
2017-Nov-10 21:09N 54°48' W 000°53'1 9.4
2017-Nov-10 21:00N 54°49' W 000°54'5 9.3
2017-Nov-10 20:30N 54°52' W 001°00'5 9.4
2017-Nov-10 20:00N 54°55' W 001°06'5 9.5
2017-Nov-10 19:30N 54°58' W 001°13'5 9.7
2017-Nov-10 19:00N 55°01' W 001°19'5 9.5
2017-Nov-10 18:30N 55°05' W 001°25'4 8.1
2017-Nov-10 18:00N 55°07' W 001°30'1 2.1
2017-Nov-10 17:29N 55°08' W 001°31'0 0.0
2017-Nov-10 16:59N 55°08' W 001°31'0 0.0
2017-Nov-10 16:29N 55°08' W 001°31'0 0.0
2017-Nov-10 15:59N 55°08' W 001°31'0 0.0
2017-Nov-10 15:29N 55°08' W 001°31'0 0.0
2017-Nov-10 14:59N 55°08' W 001°31'0 0.0
2017-Nov-10 14:29N 55°08' W 001°31'0 0.0
2017-Nov-10 13:59N 55°08' W 001°31'0 0.0
2017-Nov-10 13:29N 55°08' W 001°31'0 0.0
2017-Nov-10 12:59N 55°08' W 001°31'0 0.0
2017-Nov-10 12:29N 55°08' W 001°31'0 0.0
2017-Nov-10 11:59N 55°08' W 001°31'0 0.0
2017-Nov-10 11:29N 55°08' W 001°31'0 0.0
2017-Nov-10 10:59N 55°08' W 001°31'0 0.0
2017-Nov-10 10:29N 55°08' W 001°31'0 0.0
2017-Nov-10 09:59N 55°08' W 001°31'0 0.0
2017-Nov-10 09:29N 55°08' W 001°31'0 0.0
2017-Nov-10 08:59N 55°08' W 001°31'0 0.0
2017-Nov-10 08:29N 55°08' W 001°31'0 0.0
2017-Nov-10 07:59N 55°08' W 001°31'0 0.0
2017-Nov-10 07:29N 55°08' W 001°31'0 0.0
2017-Nov-10 06:59N 55°08' W 001°31'0 0.0
2017-Nov-10 06:30N 55°08' W 001°31'2 4.5
2017-Nov-10 06:00N 55°06' W 001°29'2 3.4
2017-Nov-10 05:31N 55°07' W 001°26'3 5.6
2017-Nov-10 05:01N 55°09' W 001°26'3 5.4
2017-Nov-10 04:30N 55°12' W 001°27'3 5.2
2017-Nov-10 04:01N 55°15' W 001°27'2 4.9
2017-Nov-10 03:30N 55°17' W 001°27'3 5.5
2017-Nov-10 03:01N 55°20' W 001°28'5 9.2
2017-Nov-10 02:31N 55°24' W 001°28'5 9.0
2017-Nov-10 02:00N 55°29' W 001°29'4 8.9
2017-Nov-10 01:30N 55°33' W 001°29'4 8.6
2017-Nov-10 01:00N 55°38' W 001°30'  

Dump ship's entire track history